createdAt,value
2022-12-01T00:01:20.220Z,58.28
2022-12-01T00:03:48.083Z,45.55
2022-12-01T00:06:18.762Z,46.55
2022-12-01T00:09:03.299Z,46.65
2022-12-01T00:11:31.375Z,49.67
2022-12-01T00:14:00.761Z,47.45
2022-12-01T00:16:28.723Z,47.72
2022-12-01T00:18:57.067Z,47.22
2022-12-01T00:21:26.672Z,46.90
2022-12-01T00:23:56.806Z,41.58
2022-12-01T00:26:25.785Z,48.92
2022-12-01T00:28:55.266Z,40.65
2022-12-01T00:31:25.039Z,45.33
2022-12-01T00:33:52.938Z,38.95
2022-12-01T00:36:20.922Z,45.70
2022-12-01T00:38:49.068Z,42.28
2022-12-01T00:41:17.441Z,48.53
2022-12-01T00:43:45.309Z,46.28
2022-12-01T00:46:13.354Z,49.20
2022-12-01T00:48:42.592Z,50.53
2022-12-01T00:51:10.614Z,52.25
2022-12-01T00:53:38.520Z,50.63
2022-12-01T00:56:06.523Z,52.03
2022-12-01T00:58:34.661Z,47.83
2022-12-01T01:01:03.453Z,50.22
2022-12-01T01:03:33.195Z,50.95
2022-12-01T01:06:07.592Z,47.97
2022-12-01T01:08:35.718Z,50.72
2022-12-01T01:11:04.147Z,47.88
2022-12-01T01:13:32.489Z,53.13
2022-12-01T01:16:01.921Z,53.42
2022-12-01T01:18:30.050Z,50.25
2022-12-01T01:20:58.591Z,52.40
2022-12-01T01:23:28.126Z,57.22
2022-12-01T01:26:01.465Z,49.55
2022-12-01T01:28:29.431Z,53.63
2022-12-01T01:30:57.351Z,58.58
2022-12-01T01:33:25.326Z,52.90
2022-12-01T01:35:53.318Z,48.95
2022-12-01T01:38:21.155Z,49.65
2022-12-01T01:40:50.355Z,50.65
2022-12-01T01:43:38.770Z,52.28
2022-12-01T01:46:07.345Z,50.33
2022-12-01T01:48:37.097Z,53.45
2022-12-01T01:51:06.238Z,51.80
2022-12-01T01:53:34.733Z,55.20
2022-12-01T01:56:05.547Z,54.47
2022-12-01T01:58:34.880Z,53.92
2022-12-01T02:01:03.054Z,51.45
2022-12-01T02:03:31.418Z,43.88
2022-12-01T02:06:04.672Z,55.55
2022-12-01T02:08:35.901Z,53.55
2022-12-01T02:11:48.645Z,54.60
2022-12-01T02:14:28.995Z,55.60
2022-12-01T02:17:02.653Z,52.83
2022-12-01T02:19:46.107Z,58.58
2022-12-01T02:22:23.294Z,59.33
2022-12-01T02:25:26.827Z,51.75
2022-12-01T02:28:21.510Z,48.80
2022-12-01T02:33:26.793Z,48.33
2022-12-01T02:36:02.433Z,59.20
2022-12-01T02:38:34.909Z,51.97
2022-12-01T02:41:10.394Z,55.45
2022-12-01T02:43:45.362Z,54.60
2022-12-01T02:46:19.237Z,55.90
2022-12-01T02:48:50.472Z,56.10
2022-12-01T02:51:23.024Z,51.13
2022-12-01T02:53:51.569Z,57.65
2022-12-01T02:56:22.718Z,50.53
2022-12-01T02:58:50.995Z,55.88
2022-12-01T03:01:33.748Z,60.70
2022-12-01T03:04:12.502Z,50.35
2022-12-01T03:06:51.593Z,52.60
2022-12-01T03:09:28.234Z,56.70
2022-12-01T03:12:06.550Z,58.05
2022-12-01T03:14:41.063Z,56.10
2022-12-01T03:17:16.230Z,57.08
2022-12-01T03:19:48.901Z,58.40
2022-12-01T03:22:24.787Z,54.45
2022-12-01T03:24:56.695Z,56.08
2022-12-01T03:27:29.232Z,65.18
2022-12-01T03:30:00.874Z,52.97
2022-12-01T03:32:38.256Z,61.42
2022-12-01T03:35:10.889Z,58.42
2022-12-01T03:37:42.956Z,51.35
2022-12-01T03:40:17.755Z,49.83
2022-12-01T03:42:49.158Z,59.05
2022-12-01T03:45:24.458Z,60.75
2022-12-01T03:47:54.272Z,63.85
2022-12-01T03:50:22.707Z,57.60
2022-12-01T03:52:59.013Z,63.72
2022-12-01T03:55:29.953Z,65.68
2022-12-01T03:58:03.003Z,54.05
2022-12-01T04:00:32.218Z,61.63
2022-12-01T04:03:03.908Z,61.80
2022-12-01T04:05:32.588Z,55.47
2022-12-01T04:08:00.615Z,58.20
2022-12-01T04:10:28.771Z,60.30
2022-12-01T04:12:59.556Z,63.78
2022-12-01T04:15:28.715Z,57.55
2022-12-01T04:17:56.578Z,56.33
2022-12-01T04:20:25.848Z,56.67
2022-12-01T04:22:53.714Z,59.10
2022-12-01T04:25:21.633Z,65.28
2022-12-01T04:27:50.055Z,56.20
2022-12-01T04:30:18.374Z,59.45
2022-12-01T04:32:46.265Z,53.13
2022-12-01T04:35:14.422Z,66.75
2022-12-01T04:37:43.648Z,61.80
2022-12-01T04:40:12.574Z,61.80
2022-12-01T04:42:40.469Z,56.15
2022-12-01T04:45:09.589Z,56.55
2022-12-01T04:47:37.459Z,59.20
2022-12-01T04:50:06.451Z,68.13
2022-12-01T04:52:38.042Z,61.05
2022-12-01T04:55:08.494Z,57.40
2022-12-01T04:57:36.410Z,54.33
2022-12-01T05:00:13.069Z,61.60
2022-12-01T05:02:43.217Z,65.20
2022-12-01T05:05:11.827Z,59.70
2022-12-01T05:07:39.732Z,67.05
2022-12-01T05:10:10.082Z,66.15
2022-12-01T05:12:37.999Z,54.17
2022-12-01T05:15:06.671Z,60.70
2022-12-01T05:17:37.112Z,53.92
2022-12-01T05:20:29.340Z,64.60
2022-12-01T05:23:08.246Z,54.30
2022-12-01T05:25:40.141Z,66.93
2022-12-01T05:28:08.156Z,57.45
2022-12-01T05:30:36.016Z,57.05
2022-12-01T05:33:04.055Z,59.67
2022-12-01T05:35:33.657Z,55.65
2022-12-01T05:38:07.338Z,62.15
2022-12-01T05:40:36.192Z,55.92
2022-12-01T05:43:05.876Z,60.80
2022-12-01T05:45:34.695Z,56.88
2022-12-01T05:48:03.429Z,65.45
2022-12-01T05:50:31.903Z,57.05
2022-12-01T05:52:59.751Z,70.88
2022-12-01T05:55:27.626Z,65.57
2022-12-01T05:57:55.492Z,58.10
2022-12-01T06:00:25.117Z,65.75
2022-12-01T06:02:52.987Z,65.68
2022-12-01T06:05:20.988Z,65.75
2022-12-01T06:07:48.934Z,58.58
2022-12-01T06:10:16.881Z,65.18
2022-12-01T06:12:44.931Z,59.88
2022-12-01T06:15:14.114Z,70.15
2022-12-01T06:17:43.345Z,71.80
2022-12-01T06:20:12.853Z,64.53
2022-12-01T06:22:40.965Z,66.88
2022-12-01T06:25:09.916Z,62.28
2022-12-01T06:27:37.859Z,64.43
2022-12-01T06:30:07.359Z,75.40
2022-12-01T06:32:35.388Z,67.93
2022-12-01T06:35:04.831Z,71.65
2022-12-01T06:37:32.694Z,65.80
2022-12-01T06:40:00.593Z,63.13
2022-12-01T06:42:30.611Z,66.35
2022-12-01T06:44:58.514Z,84.70
2022-12-01T06:47:26.425Z,71.78
2022-12-01T06:49:54.342Z,69.95
2022-12-01T06:52:23.564Z,71.65
2022-12-01T06:54:51.461Z,71.60
2022-12-01T06:57:19.873Z,67.00
2022-12-01T06:59:48.502Z,66.93
2022-12-01T07:02:18.270Z,72.22
2022-12-01T07:04:46.231Z,69.45
2022-12-01T07:07:14.437Z,61.60
2022-12-01T07:09:43.910Z,71.15
2022-12-01T07:12:11.772Z,70.97
2022-12-01T07:14:40.028Z,63.65
2022-12-01T07:17:07.910Z,64.45
2022-12-01T07:19:35.816Z,78.18
2022-12-01T07:22:03.784Z,81.18
2022-12-01T07:24:31.849Z,65.78
2022-12-01T07:27:01.055Z,73.70
2022-12-01T07:29:28.958Z,65.60
2022-12-01T07:31:56.844Z,71.40
2022-12-01T07:34:24.840Z,68.43
2022-12-01T07:36:52.811Z,78.53
2022-12-01T07:39:20.812Z,73.38
2022-12-01T07:41:48.851Z,74.00
2022-12-01T07:44:18.150Z,73.72
2022-12-01T07:46:46.042Z,78.38
2022-12-01T07:49:15.568Z,69.07
2022-12-01T07:51:43.520Z,66.28
2022-12-01T07:54:14.213Z,71.15
2022-12-01T07:56:42.346Z,65.60
2022-12-01T07:59:10.448Z,70.60
2022-12-01T08:01:44.290Z,70.45
2022-12-01T08:04:13.158Z,85.70
2022-12-01T08:06:41.031Z,66.63
2022-12-01T08:09:09.087Z,72.57
2022-12-01T08:11:37.049Z,71.18
2022-12-01T08:14:04.968Z,70.00
2022-12-01T08:16:33.035Z,77.10
2022-12-01T08:19:02.930Z,72.53
2022-12-01T08:21:30.921Z,72.55
2022-12-01T08:23:59.604Z,75.97
2022-12-01T08:26:28.351Z,74.95
2022-12-01T08:28:56.467Z,72.65
2022-12-01T08:31:26.716Z,71.32
2022-12-01T08:33:55.248Z,67.43
2022-12-01T08:36:25.166Z,67.13
2022-12-01T08:38:55.214Z,74.45
2022-12-01T08:41:24.219Z,79.57
2022-12-01T08:44:00.346Z,73.72
2022-12-01T08:46:30.039Z,78.95
2022-12-01T08:48:58.300Z,66.65
2022-12-01T08:51:28.195Z,82.78
2022-12-01T08:53:57.537Z,73.65
2022-12-01T08:56:27.750Z,77.95
2022-12-01T08:58:56.498Z,70.15
2022-12-01T09:01:25.744Z,76.05
2022-12-01T09:04:05.938Z,78.57
2022-12-01T09:06:39.481Z,78.00
2022-12-01T09:09:07.599Z,80.70
2022-12-01T09:11:35.469Z,71.28
2022-12-01T09:14:03.337Z,66.13
2022-12-01T09:16:31.347Z,74.20
2022-12-01T09:18:59.314Z,76.20
2022-12-01T09:21:30.698Z,65.90
2022-12-01T09:24:00.443Z,82.97
2022-12-01T09:26:29.094Z,66.85
2022-12-01T09:29:10.019Z,78.22
2022-12-01T09:31:38.691Z,81.28
2022-12-01T09:34:08.516Z,90.30
2022-12-01T09:36:37.852Z,72.75
2022-12-01T09:39:09.090Z,75.85
2022-12-01T09:41:41.539Z,72.93
2022-12-01T09:44:20.681Z,63.90
2022-12-01T09:46:52.262Z,86.05
2022-12-01T09:49:23.947Z,78.82
2022-12-01T09:51:53.744Z,76.32
2022-12-01T09:54:23.099Z,67.15
2022-12-01T09:56:55.406Z,81.78
2022-12-01T09:59:26.056Z,78.05
2022-12-01T10:01:59.439Z,77.78
2022-12-01T10:04:37.187Z,81.90
2022-12-01T10:07:10.424Z,83.72
2022-12-01T10:09:47.613Z,80.68
2022-12-01T10:12:18.250Z,73.15
2022-12-01T10:14:48.168Z,73.13
2022-12-01T10:17:27.342Z,87.53
2022-12-01T10:20:01.905Z,80.30
2022-12-01T10:22:50.580Z,91.30
2022-12-01T10:25:23.546Z,93.60
2022-12-01T10:28:02.851Z,84.68
2022-12-01T10:30:30.998Z,76.43
2022-12-01T10:33:11.129Z,91.97
2022-12-01T10:35:40.223Z,87.15
2022-12-01T10:38:16.613Z,83.18
2022-12-01T10:40:46.703Z,87.45
2022-12-01T10:43:14.603Z,92.93
2022-12-01T10:45:45.515Z,86.72
2022-12-01T10:48:18.548Z,85.20
2022-12-01T10:50:48.414Z,89.60
2022-12-01T10:53:29.224Z,86.47
2022-12-01T10:56:05.988Z,94.53
2022-12-01T10:58:40.266Z,81.18
2022-12-01T11:01:08.354Z,88.72
2022-12-01T11:03:37.499Z,86.15
2022-12-01T11:06:08.012Z,85.40
2022-12-01T11:08:41.616Z,71.20
2022-12-01T11:11:31.084Z,70.72
2022-12-01T11:14:02.816Z,77.57
2022-12-01T11:16:40.746Z,85.25
2022-12-01T11:19:11.213Z,76.22
2022-12-01T11:21:51.015Z,72.97
2022-12-01T11:24:34.674Z,75.13
2022-12-01T11:27:03.990Z,71.35
2022-12-01T11:29:37.006Z,74.43
2022-12-01T11:32:17.960Z,75.07
2022-12-01T11:34:51.033Z,73.65
2022-12-01T11:37:22.133Z,78.07
2022-12-01T11:39:52.391Z,81.00
2022-12-01T11:42:26.821Z,74.53
2022-12-01T11:44:57.953Z,79.75
2022-12-01T11:47:27.548Z,71.70
2022-12-01T11:49:57.701Z,68.78
2022-12-01T11:52:31.939Z,78.80
2022-12-01T11:55:09.681Z,80.45
2022-12-01T11:57:41.997Z,67.75
2022-12-01T12:00:17.860Z,75.57
2022-12-01T12:02:59.986Z,80.93
2022-12-01T12:06:38.958Z,76.20
2022-12-01T12:09:12.380Z,75.75
2022-12-01T12:11:51.176Z,74.68
2022-12-01T12:14:40.406Z,77.97
2022-12-01T12:17:19.390Z,69.88
2022-12-01T12:20:17.499Z,79.65
2022-12-01T12:22:56.141Z,72.30
2022-12-01T12:25:33.598Z,76.30
2022-12-01T12:28:14.997Z,73.60
2022-12-01T12:30:52.294Z,74.32
2022-12-01T12:33:53.960Z,74.90
2022-12-01T12:36:34.830Z,72.50
2022-12-01T12:39:16.538Z,73.20
2022-12-01T12:41:47.011Z,76.68
2022-12-01T12:44:37.318Z,75.57
2022-12-01T12:47:18.050Z,66.15
2022-12-01T12:49:55.224Z,62.63
2022-12-01T12:52:27.619Z,70.10
2022-12-01T12:54:59.863Z,66.07
2022-12-01T12:57:32.676Z,63.15
2022-12-01T13:00:05.035Z,63.00
2022-12-01T13:02:40.784Z,67.90
2022-12-01T13:05:16.081Z,64.40
2022-12-01T13:07:48.991Z,60.05
2022-12-01T13:10:29.646Z,61.67
2022-12-01T13:13:05.413Z,58.63
2022-12-01T13:15:36.530Z,56.78
2022-12-01T13:18:27.484Z,65.97
2022-12-01T13:20:58.204Z,63.67
2022-12-01T13:23:27.076Z,63.45
2022-12-01T13:25:58.947Z,61.40
2022-12-01T13:28:33.946Z,58.30
2022-12-01T13:31:04.357Z,69.72
2022-12-01T13:33:34.893Z,57.65
2022-12-01T13:39:00.394Z,56.78
2022-12-01T13:41:33.042Z,69.45
2022-12-01T13:44:04.738Z,54.10
2022-12-01T13:46:50.305Z,62.95
2022-12-01T13:49:36.963Z,55.70
2022-12-01T13:52:28.470Z,57.33
2022-12-01T13:55:25.124Z,62.22
2022-12-01T13:58:24.031Z,54.25
2022-12-01T14:00:52.255Z,62.83
2022-12-01T14:03:41.271Z,63.40
2022-12-01T14:06:26.162Z,57.38
2022-12-01T14:08:59.064Z,55.85
2022-12-01T14:11:29.368Z,62.28
2022-12-01T14:13:59.872Z,60.80
2022-12-01T14:16:48.194Z,60.25
2022-12-01T14:19:31.271Z,55.20
2022-12-01T14:22:01.971Z,54.95
2022-12-01T14:24:35.249Z,62.40
2022-12-01T14:27:04.219Z,57.88
2022-12-01T14:29:34.769Z,66.78
2022-12-01T14:32:26.641Z,56.90
2022-12-01T14:35:04.351Z,60.40
2022-12-01T14:37:45.021Z,64.78
2022-12-01T14:40:19.896Z,58.97
2022-12-01T14:43:25.175Z,58.97
2022-12-01T14:48:34.701Z,62.65
2022-12-01T14:51:14.720Z,68.15
2022-12-01T14:53:47.678Z,55.03
2022-12-01T14:56:19.235Z,63.05
2022-12-01T14:58:55.647Z,56.50
2022-12-01T15:01:24.357Z,59.63
2022-12-01T15:03:57.826Z,62.15
2022-12-01T15:06:28.055Z,58.22
2022-12-01T15:12:00.213Z,60.63
2022-12-01T15:14:34.317Z,56.38
2022-12-01T15:19:36.261Z,51.63
2022-12-01T15:22:07.664Z,63.88
2022-12-01T15:24:37.003Z,55.35
2022-12-01T15:27:06.124Z,61.08
2022-12-01T15:29:37.425Z,59.85
2022-12-01T15:32:09.476Z,63.17
2022-12-01T15:34:42.176Z,58.50
2022-12-01T15:37:14.350Z,56.50
2022-12-01T15:39:47.954Z,61.63
2022-12-01T15:42:24.339Z,59.90
2022-12-01T15:45:00.573Z,54.45
2022-12-01T15:47:35.830Z,64.80
2022-12-01T15:50:05.035Z,59.58
2022-12-01T15:52:33.624Z,56.00
2022-12-01T15:55:06.846Z,55.38
2022-12-01T15:57:36.080Z,57.35
2022-12-01T16:00:05.380Z,65.32
2022-12-01T16:02:34.642Z,64.20
2022-12-01T16:05:05.947Z,64.07
2022-12-01T16:08:11.607Z,61.53
2022-12-01T16:10:31.626Z,59.25
2022-12-01T16:13:38.594Z,58.08
2022-12-01T16:16:30.134Z,62.38
2022-12-01T16:19:00.822Z,58.53
2022-12-01T16:21:29.718Z,60.38
2022-12-01T16:24:02.597Z,59.40
2022-12-01T16:26:33.975Z,60.97
2022-12-01T16:29:01.855Z,55.45
2022-12-01T16:31:29.863Z,64.50
2022-12-01T16:34:13.905Z,61.92
2022-12-01T16:36:46.784Z,58.47
2022-12-01T16:39:15.435Z,64.07
2022-12-01T16:41:46.801Z,61.72
2022-12-01T16:44:31.129Z,59.40
2022-12-01T16:46:59.063Z,58.08
2022-12-01T16:49:27.108Z,60.08
2022-12-01T16:51:56.935Z,72.20
2022-12-01T16:54:25.509Z,59.03
2022-12-01T16:56:54.911Z,61.45
2022-12-01T16:59:22.813Z,61.85
2022-12-01T17:01:50.712Z,58.47
2022-12-01T17:04:18.980Z,68.30
2022-12-01T17:06:47.051Z,70.25
2022-12-01T17:09:14.920Z,64.40
2022-12-01T17:11:42.849Z,60.45
2022-12-01T17:14:12.506Z,66.70
2022-12-01T17:16:40.410Z,61.25
2022-12-01T17:19:08.276Z,54.40
2022-12-01T17:21:36.110Z,56.10
2022-12-01T17:24:04.420Z,59.40
2022-12-01T17:26:32.294Z,61.17
2022-12-01T17:29:00.277Z,62.85
2022-12-01T17:31:29.605Z,61.83
2022-12-01T17:33:57.519Z,61.97
2022-12-01T17:36:25.412Z,57.85
2022-12-01T17:38:53.326Z,65.15
2022-12-01T17:41:24.742Z,55.10
2022-12-01T17:43:53.307Z,60.92
2022-12-01T17:46:21.301Z,60.92
2022-12-01T17:48:50.820Z,65.72
2022-12-01T17:51:18.766Z,54.70
2022-12-01T17:53:46.671Z,68.32
2022-12-01T17:56:16.653Z,65.47
2022-12-01T17:58:45.055Z,64.95
2022-12-01T18:01:16.000Z,63.35
2022-12-01T18:03:44.419Z,59.42
2022-12-01T18:06:14.411Z,58.42
2022-12-01T18:08:43.302Z,53.25
2022-12-01T18:11:13.976Z,59.28
2022-12-01T18:13:43.817Z,60.22
2022-12-01T18:16:13.505Z,64.55
2022-12-01T18:18:41.467Z,66.40
2022-12-01T18:21:11.261Z,65.80
2022-12-01T18:23:40.858Z,64.78
2022-12-01T18:26:15.394Z,68.05
2022-12-01T18:28:44.000Z,59.40
2022-12-01T18:31:13.637Z,65.70
2022-12-01T18:33:43.662Z,69.10
2022-12-01T18:36:14.386Z,70.22
2022-12-01T18:38:43.763Z,68.30
2022-12-01T18:41:11.717Z,73.35
2022-12-01T18:43:39.574Z,66.90
2022-12-01T18:46:07.739Z,64.00
2022-12-01T18:48:36.524Z,64.18
2022-12-01T18:51:06.001Z,66.28
2022-12-01T18:53:34.717Z,63.95
2022-12-01T18:56:05.108Z,70.90
2022-12-01T18:58:33.737Z,62.13
2022-12-01T19:01:02.333Z,64.82
2022-12-01T19:03:30.759Z,65.72
2022-12-01T19:05:58.782Z,63.33
2022-12-01T19:08:26.780Z,59.20
2022-12-01T19:11:01.744Z,60.70
2022-12-01T19:13:31.773Z,59.33
2022-12-01T19:16:00.469Z,65.18
2022-12-01T19:18:28.416Z,72.13
2022-12-01T19:20:56.332Z,65.50
2022-12-01T19:23:24.199Z,71.00
2022-12-01T19:25:52.166Z,71.18
2022-12-01T19:28:20.050Z,61.80
2022-12-01T19:30:49.344Z,67.60
2022-12-01T19:33:17.501Z,70.10
2022-12-01T19:35:45.442Z,71.15
2022-12-01T19:38:13.522Z,73.10
2022-12-01T19:40:42.128Z,72.28
2022-12-01T19:43:10.102Z,66.35
2022-12-01T19:45:38.813Z,66.15
2022-12-01T19:48:08.246Z,67.60
2022-12-01T19:50:37.002Z,71.50
2022-12-01T19:53:04.978Z,65.72
2022-12-01T19:55:32.871Z,69.75
2022-12-01T19:58:00.759Z,72.15
2022-12-01T20:00:28.599Z,70.60
2022-12-01T20:02:57.705Z,62.50
2022-12-01T20:05:26.950Z,72.85
2022-12-01T20:07:54.878Z,67.80
2022-12-01T20:10:22.826Z,74.55
2022-12-01T20:12:51.105Z,69.70
2022-12-01T20:15:19.055Z,72.85
2022-12-01T20:17:47.631Z,70.78
2022-12-01T20:20:16.369Z,83.35
2022-12-01T20:22:45.629Z,80.78
2022-12-01T20:25:13.476Z,78.93
2022-12-01T20:27:42.487Z,80.55
2022-12-01T20:30:11.901Z,79.82
2022-12-01T20:32:39.827Z,70.00
2022-12-01T20:35:09.828Z,70.35
2022-12-01T20:37:37.808Z,79.80
2022-12-01T20:40:08.509Z,81.53
2022-12-01T20:42:39.604Z,79.90
2022-12-01T20:45:08.277Z,73.68
2022-12-01T20:47:37.084Z,76.68
2022-12-01T20:50:23.228Z,84.07
2022-12-01T20:52:51.370Z,85.30
2022-12-01T20:55:20.579Z,72.75
2022-12-01T20:57:48.442Z,81.75
2022-12-01T21:00:19.535Z,89.50
2022-12-01T21:02:47.875Z,87.60
2022-12-01T21:05:16.059Z,86.25
2022-12-01T21:07:44.079Z,84.85
2022-12-01T21:10:17.017Z,98.85
2022-12-01T21:13:10.738Z,96.35
2022-12-01T21:15:50.046Z,91.28
2022-12-01T21:18:22.746Z,87.50
2022-12-01T21:20:53.992Z,82.78
2022-12-01T21:23:22.778Z,90.00
2022-12-01T21:25:51.262Z,100.43
2022-12-01T21:28:23.491Z,97.78
2022-12-01T21:30:56.610Z,99.57
2022-12-01T21:33:31.675Z,97.80
2022-12-01T21:36:01.676Z,98.35
2022-12-01T21:38:32.555Z,88.97
2022-12-01T21:41:00.443Z,107.30
2022-12-01T21:43:35.238Z,89.88
2022-12-01T21:46:15.169Z,98.00
2022-12-01T21:48:43.862Z,96.65
2022-12-01T21:51:17.342Z,99.68
2022-12-01T21:53:45.731Z,95.32
2022-12-01T21:56:21.117Z,90.22
2022-12-01T21:58:51.068Z,94.53
2022-12-01T22:01:26.188Z,98.00
2022-12-01T22:04:01.682Z,93.82
2022-12-01T22:06:36.388Z,102.50
2022-12-01T22:09:15.286Z,103.15
2022-12-01T22:11:46.001Z,94.85
2022-12-01T22:14:17.870Z,93.07
2022-12-01T22:16:56.198Z,92.93
2022-12-01T22:19:30.498Z,86.88
2022-12-01T22:22:04.101Z,98.32
2022-12-01T22:24:40.383Z,98.25
2022-12-01T22:27:22.293Z,99.18
2022-12-01T22:29:53.723Z,91.05
2022-12-01T22:32:38.619Z,94.72
2022-12-01T22:35:28.646Z,92.13
2022-12-01T22:38:01.441Z,99.68
2022-12-01T22:40:38.015Z,100.00
2022-12-01T22:43:23.551Z,89.78
2022-12-01T22:46:03.890Z,92.97
2022-12-01T22:48:36.625Z,98.68
2022-12-01T22:51:23.296Z,99.30
2022-12-01T22:53:54.629Z,102.00
2022-12-01T22:56:30.224Z,104.43
2022-12-01T22:58:58.192Z,103.63
2022-12-01T23:01:30.008Z,94.68
2022-12-01T23:04:20.429Z,97.95
2022-12-01T23:07:00.717Z,97.50
2022-12-01T23:09:33.778Z,92.15
2022-12-01T23:12:14.853Z,98.43
2022-12-01T23:14:45.364Z,102.82
2022-12-01T23:17:19.755Z,92.47
2022-12-01T23:19:47.998Z,89.68
2022-12-01T23:22:16.745Z,94.53
2022-12-01T23:24:45.094Z,98.65
2022-12-01T23:27:13.689Z,94.80
2022-12-01T23:29:41.548Z,96.85
2022-12-01T23:32:10.896Z,108.80
2022-12-01T23:34:40.183Z,93.95
2022-12-01T23:37:32.586Z,100.22
2022-12-01T23:40:01.294Z,93.40
2022-12-01T23:42:29.265Z,96.13
2022-12-01T23:44:57.203Z,96.88
2022-12-01T23:47:28.228Z,100.07
2022-12-01T23:50:02.025Z,103.95
2022-12-01T23:52:36.670Z,98.40
2022-12-01T23:55:15.693Z,114.20
2022-12-01T23:57:44.049Z,100.50
